createdAt,value
2017-09-03T00:02:18.586Z,5.45
2017-09-03T00:04:46.098Z,5.97
2017-09-03T00:07:13.718Z,5.53
2017-09-03T00:09:41.290Z,5.65
2017-09-03T00:12:08.816Z,6.40
2017-09-03T00:14:36.343Z,5.32
2017-09-03T00:17:03.881Z,4.97
2017-09-03T00:19:31.515Z,5.72
2017-09-03T00:21:59.060Z,6.47
2017-09-03T00:24:27.343Z,6.10
2017-09-03T00:26:54.907Z,5.37
2017-09-03T00:29:22.428Z,5.80
2017-09-03T00:31:50.858Z,5.55
2017-09-03T00:34:18.434Z,6.05
2017-09-03T00:36:45.970Z,6.40
2017-09-03T00:39:13.502Z,7.00
2017-09-03T00:41:41.053Z,6.78
2017-09-03T00:44:08.580Z,6.95
2017-09-03T00:46:36.121Z,6.37
2017-09-03T00:49:03.677Z,6.95
2017-09-03T00:51:31.208Z,6.90
2017-09-03T00:53:58.764Z,7.15
2017-09-03T00:56:26.340Z,7.20
2017-09-03T00:58:53.880Z,6.75
2017-09-03T01:01:21.398Z,6.85
2017-09-03T01:03:48.929Z,6.70
2017-09-03T01:06:16.461Z,6.57
2017-09-03T01:08:43.976Z,6.18
2017-09-03T01:11:11.515Z,5.90
2017-09-03T01:13:39.077Z,5.80
2017-09-03T01:16:06.620Z,6.05
2017-09-03T01:18:34.148Z,6.53
2017-09-03T01:21:01.706Z,7.20
2017-09-03T01:23:29.247Z,7.07
2017-09-03T01:25:56.781Z,7.00
2017-09-03T01:28:24.549Z,7.75
2017-09-03T01:30:52.104Z,7.55
2017-09-03T01:33:19.655Z,8.63
2017-09-03T01:35:47.741Z,8.35
2017-09-03T01:38:15.237Z,10.80
2017-09-03T01:40:43.294Z,10.60
2017-09-03T01:43:10.831Z,9.90
2017-09-03T01:45:38.366Z,10.27
2017-09-03T01:48:09.037Z,9.82
2017-09-03T01:50:37.193Z,10.43
2017-09-03T01:53:05.627Z,10.45
2017-09-03T01:55:33.147Z,11.18
2017-09-03T01:58:00.723Z,9.52
2017-09-03T02:00:28.288Z,11.18
2017-09-03T02:02:55.815Z,10.82
2017-09-03T02:05:23.356Z,11.95
2017-09-03T02:07:50.901Z,10.88
2017-09-03T02:10:18.438Z,10.70
2017-09-03T02:12:45.980Z,11.82
2017-09-03T02:15:13.543Z,12.50
2017-09-03T02:17:41.097Z,11.10
2017-09-03T02:20:08.786Z,12.13
2017-09-03T02:22:36.849Z,12.75
2017-09-03T02:25:04.333Z,12.40
2017-09-03T02:27:31.891Z,12.95
2017-09-03T02:29:59.449Z,14.02
2017-09-03T02:32:26.995Z,14.23
2017-09-03T02:34:54.562Z,13.38
2017-09-03T02:37:22.105Z,14.63
2017-09-03T02:39:49.645Z,13.73
2017-09-03T02:42:17.198Z,14.63
2017-09-03T02:44:44.741Z,13.60
2017-09-03T02:47:12.286Z,14.90
2017-09-03T02:49:39.847Z,14.90
2017-09-03T02:52:07.372Z,15.77
2017-09-03T02:54:34.902Z,17.08
2017-09-03T02:57:02.450Z,15.88
2017-09-03T02:59:29.971Z,16.23
2017-09-03T03:01:57.497Z,15.73
2017-09-03T03:04:25.049Z,17.12
2017-09-03T03:06:52.598Z,17.45
2017-09-03T03:09:20.170Z,17.20
2017-09-03T03:11:47.699Z,17.10
2017-09-03T03:14:15.219Z,16.30
2017-09-03T03:16:42.769Z,16.27
2017-09-03T03:19:10.302Z,17.65
2017-09-03T03:21:37.829Z,16.67
2017-09-03T03:24:05.394Z,17.00
2017-09-03T03:26:32.996Z,18.08
2017-09-03T03:29:00.532Z,16.17
2017-09-03T03:31:28.035Z,16.45
2017-09-03T03:33:55.603Z,14.35
2017-09-03T03:36:23.339Z,14.20
2017-09-03T03:38:50.869Z,15.45
2017-09-03T03:41:18.404Z,14.27
2017-09-03T03:43:45.955Z,13.62
2017-09-03T03:46:13.492Z,12.45
2017-09-03T03:48:41.021Z,14.57
2017-09-03T03:51:08.553Z,13.85
2017-09-03T03:53:36.040Z,14.27
2017-09-03T03:56:03.585Z,15.52
2017-09-03T03:58:31.126Z,16.70
2017-09-03T04:00:58.673Z,17.05
2017-09-03T04:03:26.394Z,17.50
2017-09-03T04:05:53.937Z,17.25
2017-09-03T04:08:21.464Z,16.05
2017-09-03T04:10:48.993Z,17.10
2017-09-03T04:13:16.657Z,17.20
2017-09-03T04:15:44.212Z,17.98
2017-09-03T04:18:11.807Z,16.10
2017-09-03T04:20:39.364Z,16.48
2017-09-03T04:23:06.930Z,15.95
2017-09-03T04:25:34.445Z,16.95
2017-09-03T04:28:02.010Z,15.02
2017-09-03T04:30:29.549Z,14.85
2017-09-03T04:32:57.077Z,15.15
2017-09-03T04:35:24.616Z,15.30
2017-09-03T04:37:52.153Z,15.77
2017-09-03T04:40:19.693Z,15.48
2017-09-03T04:42:47.248Z,14.82
2017-09-03T04:45:14.791Z,14.40
2017-09-03T04:47:42.337Z,14.10
2017-09-03T04:50:09.886Z,14.60
2017-09-03T04:52:37.421Z,15.27
2017-09-03T04:55:04.956Z,13.93
2017-09-03T04:57:32.489Z,13.48
2017-09-03T05:00:00.026Z,15.25
2017-09-03T05:02:27.557Z,13.35
2017-09-03T05:04:55.080Z,12.35
2017-09-03T05:07:22.641Z,13.20
2017-09-03T05:09:50.181Z,13.18
2017-09-03T05:12:17.722Z,13.38
2017-09-03T05:14:45.256Z,12.93
2017-09-03T05:17:12.813Z,13.62
2017-09-03T05:19:40.397Z,12.95
2017-09-03T05:22:07.919Z,12.48
2017-09-03T05:24:35.467Z,11.85
2017-09-03T05:27:03.022Z,12.13
2017-09-03T05:29:30.564Z,12.15
2017-09-03T05:31:58.048Z,12.35
2017-09-03T05:34:25.610Z,11.77
2017-09-03T05:36:53.161Z,12.10
2017-09-03T05:39:20.949Z,11.65
2017-09-03T05:41:48.483Z,11.93
2017-09-03T05:44:16.035Z,12.40
2017-09-03T05:46:43.525Z,12.73
2017-09-03T05:49:11.115Z,12.80
2017-09-03T05:51:38.967Z,12.55
2017-09-03T05:54:06.970Z,13.40
2017-09-03T05:56:34.533Z,12.93
2017-09-03T05:59:02.075Z,12.95
2017-09-03T06:01:29.653Z,13.15
2017-09-03T06:03:57.191Z,12.18
2017-09-03T06:06:24.733Z,12.15
2017-09-03T06:08:52.293Z,12.50
2017-09-03T06:11:19.861Z,14.95
2017-09-03T06:13:47.425Z,12.40
2017-09-03T06:16:15.005Z,11.27
2017-09-03T06:18:42.559Z,10.95
2017-09-03T06:21:10.081Z,11.50
2017-09-03T06:23:37.669Z,12.63
2017-09-03T06:26:05.409Z,12.23
2017-09-03T06:28:32.956Z,11.35
2017-09-03T06:31:00.522Z,10.88
2017-09-03T06:33:28.064Z,11.35
2017-09-03T06:35:55.616Z,10.52
2017-09-03T06:38:23.114Z,11.70
2017-09-03T06:40:50.694Z,10.70
2017-09-03T06:43:18.258Z,12.02
2017-09-03T06:45:45.850Z,10.48
2017-09-03T06:48:13.425Z,10.38
2017-09-03T06:50:40.945Z,11.32
2017-09-03T06:53:08.470Z,9.65
2017-09-03T06:55:36.038Z,9.05
2017-09-03T06:58:03.615Z,8.52
2017-09-03T07:00:31.216Z,8.45
2017-09-03T07:02:58.833Z,8.02
2017-09-03T07:05:26.440Z,8.98
2017-09-03T07:07:54.063Z,8.50
2017-09-03T07:10:21.636Z,9.45
2017-09-03T07:12:49.213Z,6.40
2017-09-03T07:15:16.825Z,8.55
2017-09-03T07:17:44.359Z,5.90
2017-09-03T07:20:11.868Z,5.62
2017-09-03T07:22:39.445Z,6.10
2017-09-03T07:25:07.028Z,6.07
2017-09-03T07:27:34.576Z,5.28
2017-09-03T07:30:02.160Z,4.40
2017-09-03T07:32:29.718Z,4.15
2017-09-03T07:34:57.291Z,3.75
2017-09-03T07:37:24.862Z,3.60
2017-09-03T07:39:52.422Z,5.35
2017-09-03T07:42:20.048Z,4.70
2017-09-03T07:44:47.568Z,3.45
2017-09-03T07:47:15.168Z,4.00
2017-09-03T07:49:42.768Z,3.50
2017-09-03T07:52:10.331Z,3.90
2017-09-03T07:54:37.926Z,3.67
2017-09-03T07:57:05.533Z,3.92
2017-09-03T07:59:33.141Z,3.53
2017-09-03T08:02:00.726Z,2.85
2017-09-03T08:04:29.111Z,3.10
2017-09-03T08:06:56.866Z,3.35
2017-09-03T08:09:24.457Z,3.50
2017-09-03T08:11:52.025Z,3.28
2017-09-03T08:14:19.625Z,2.92
2017-09-03T08:16:47.305Z,2.95
2017-09-03T08:19:16.268Z,2.80
2017-09-03T08:21:43.937Z,3.20
2017-09-03T08:24:11.530Z,3.92
2017-09-03T08:26:39.201Z,3.50
2017-09-03T08:29:06.789Z,3.67
2017-09-03T08:31:35.084Z,3.72
2017-09-03T08:34:02.692Z,3.90
2017-09-03T08:36:30.368Z,4.15
2017-09-03T08:38:58.004Z,3.40
2017-09-03T08:41:25.652Z,3.20
2017-09-03T08:43:53.440Z,3.95
2017-09-03T08:46:21.045Z,3.90
2017-09-03T08:48:48.643Z,3.60
2017-09-03T08:51:16.220Z,4.20
2017-09-03T08:53:43.783Z,4.20
2017-09-03T08:56:11.365Z,4.40
2017-09-03T08:58:39.012Z,4.35
2017-09-03T09:01:06.790Z,4.90
2017-09-03T09:03:34.494Z,4.10
2017-09-03T09:06:02.276Z,5.10
2017-09-03T09:08:30.821Z,4.68
2017-09-03T09:10:58.398Z,4.65
2017-09-03T09:13:25.977Z,4.22
2017-09-03T09:15:54.524Z,4.95
2017-09-03T09:18:22.535Z,5.25
2017-09-03T09:20:50.084Z,4.47
2017-09-03T09:23:17.697Z,4.55
2017-09-03T09:25:45.353Z,5.22
2017-09-03T09:28:13.014Z,5.10
2017-09-03T09:30:40.591Z,4.28
2017-09-03T09:33:08.241Z,4.30
2017-09-03T09:35:35.826Z,4.47
2017-09-03T09:38:04.329Z,3.75
2017-09-03T09:40:31.900Z,3.30
2017-09-03T09:42:59.592Z,3.53
2017-09-03T09:45:27.184Z,3.05
2017-09-03T09:47:54.832Z,5.03
2017-09-03T09:50:25.385Z,3.25
2017-09-03T09:52:53.151Z,3.60
2017-09-03T09:55:21.639Z,3.45
2017-09-03T09:57:49.352Z,3.95
2017-09-03T10:00:17.012Z,3.65
2017-09-03T10:02:46.713Z,3.30
2017-09-03T10:05:14.281Z,3.08
2017-09-03T10:07:42.801Z,3.10
2017-09-03T10:10:10.473Z,2.70
2017-09-03T10:12:38.104Z,3.25
2017-09-03T10:15:05.743Z,2.30
2017-09-03T10:17:33.353Z,3.12
2017-09-03T10:20:01.780Z,2.45
2017-09-03T10:22:29.504Z,3.60
2017-09-03T10:24:58.031Z,14.32
2017-09-03T10:27:25.665Z,2.95
2017-09-03T10:29:54.955Z,22.15
2017-09-03T10:32:22.596Z,20.58
2017-09-03T10:34:50.205Z,8.60
2017-09-03T10:37:17.959Z,5.20
2017-09-03T10:39:46.073Z,6.15
2017-09-03T10:42:13.847Z,2.67
2017-09-03T10:44:42.616Z,3.45
2017-09-03T10:47:10.214Z,2.95
2017-09-03T10:49:38.193Z,2.62
2017-09-03T10:52:06.100Z,2.90
2017-09-03T10:54:33.733Z,2.80
2017-09-03T10:57:01.452Z,3.17
2017-09-03T10:59:29.113Z,3.25
2017-09-03T11:01:56.748Z,2.87
2017-09-03T11:04:25.729Z,3.10
2017-09-03T11:06:53.628Z,3.35
2017-09-03T11:09:21.706Z,3.20
2017-09-03T11:11:50.091Z,3.20
2017-09-03T11:14:19.161Z,3.05
2017-09-03T11:16:46.841Z,2.72
2017-09-03T11:19:15.151Z,2.72
2017-09-03T11:21:45.544Z,2.90
2017-09-03T11:24:13.955Z,2.72
2017-09-03T11:26:41.553Z,3.17
2017-09-03T11:29:09.932Z,4.07
2017-09-03T11:31:37.701Z,5.70
2017-09-03T11:34:05.637Z,8.18
2017-09-03T11:36:33.276Z,6.10
2017-09-03T11:39:00.879Z,3.85
2017-09-03T11:41:28.586Z,3.83
2017-09-03T11:43:56.213Z,6.12
2017-09-03T11:46:23.803Z,3.45
2017-09-03T11:48:51.427Z,3.50
2017-09-03T11:51:19.091Z,3.37
2017-09-03T11:53:47.597Z,7.18
2017-09-03T11:56:15.252Z,8.15
2017-09-03T11:58:42.879Z,13.25
2017-09-03T12:01:10.512Z,28.90
2017-09-03T12:03:38.160Z,19.83
2017-09-03T12:06:05.773Z,17.65
2017-09-03T12:08:34.174Z,6.32
2017-09-03T12:11:02.644Z,4.10
2017-09-03T12:13:30.269Z,3.90
2017-09-03T12:15:57.894Z,4.00
2017-09-03T12:18:25.519Z,6.70
2017-09-03T12:20:53.137Z,6.32
2017-09-03T12:23:20.719Z,3.15
2017-09-03T12:25:48.358Z,3.42
2017-09-03T12:28:16.005Z,3.15
2017-09-03T12:30:43.662Z,3.00
2017-09-03T12:33:11.489Z,2.80
2017-09-03T12:35:39.145Z,2.95
2017-09-03T12:38:06.768Z,3.50
2017-09-03T12:40:34.411Z,2.50
2017-09-03T12:43:02.068Z,2.85
2017-09-03T12:45:30.597Z,2.35
2017-09-03T12:47:58.593Z,2.70
2017-09-03T12:50:26.226Z,2.33
2017-09-03T12:52:54.673Z,2.00
2017-09-03T12:55:22.281Z,2.20
2017-09-03T12:57:50.657Z,2.10
2017-09-03T13:00:19.107Z,2.37
2017-09-03T13:02:46.713Z,2.03
2017-09-03T13:05:14.271Z,1.70
2017-09-03T13:07:42.616Z,1.60
2017-09-03T13:10:11.124Z,1.70
2017-09-03T13:15:31.459Z,1.62
2017-09-03T13:17:59.860Z,1.50
2017-09-03T13:20:27.692Z,1.60
2017-09-03T13:22:55.305Z,1.70
2017-09-03T13:25:23.884Z,1.60
2017-09-03T13:27:51.548Z,1.58
2017-09-03T13:30:19.132Z,1.83
2017-09-03T13:32:46.666Z,1.45
2017-09-03T13:35:14.262Z,1.23
2017-09-03T13:37:41.865Z,1.60
2017-09-03T13:40:09.450Z,1.20
2017-09-03T13:42:37.076Z,1.58
2017-09-03T13:45:05.184Z,2.03
2017-09-03T13:47:32.864Z,2.12
2017-09-03T13:50:01.023Z,1.75
2017-09-03T13:52:28.636Z,1.83
2017-09-03T13:54:56.275Z,2.62
2017-09-03T13:57:23.996Z,1.80
2017-09-03T13:59:51.659Z,2.22
2017-09-03T14:02:19.326Z,2.50
2017-09-03T14:04:46.911Z,2.20
2017-09-03T14:07:14.537Z,2.17
2017-09-03T14:09:42.149Z,2.30
2017-09-03T14:12:09.727Z,2.65
2017-09-03T14:14:37.345Z,2.10
2017-09-03T14:17:04.900Z,2.42
2017-09-03T14:19:33.071Z,2.10
2017-09-03T14:22:00.632Z,2.08
2017-09-03T14:24:28.240Z,1.70
2017-09-03T14:26:55.828Z,2.15
2017-09-03T14:29:23.407Z,1.70
2017-09-03T14:31:51.014Z,2.00
2017-09-03T14:34:19.369Z,2.08
2017-09-03T14:36:46.969Z,2.33
2017-09-03T14:39:14.505Z,1.83
2017-09-03T14:41:42.058Z,1.70
2017-09-03T14:44:09.621Z,1.80
2017-09-03T14:46:37.144Z,1.90
2017-09-03T14:49:04.803Z,2.35
2017-09-03T14:51:32.391Z,1.55
2017-09-03T14:53:59.969Z,1.95
2017-09-03T14:56:27.533Z,2.22
2017-09-03T14:58:55.097Z,1.70
2017-09-03T15:01:22.665Z,1.90
2017-09-03T15:03:50.243Z,2.17
2017-09-03T15:06:17.864Z,1.98
2017-09-03T15:08:45.444Z,1.92
2017-09-03T15:11:13.972Z,2.20
2017-09-03T15:13:42.262Z,3.10
2017-09-03T15:16:09.881Z,2.50
2017-09-03T15:18:37.535Z,1.98
2017-09-03T15:21:05.108Z,2.70
2017-09-03T15:23:32.719Z,2.28
2017-09-03T15:26:00.327Z,2.72
2017-09-03T15:28:27.878Z,2.08
2017-09-03T15:30:55.468Z,2.22
2017-09-03T15:33:23.054Z,2.25
2017-09-03T15:35:50.563Z,1.67
2017-09-03T15:38:18.125Z,3.25
2017-09-03T15:40:46.347Z,3.80
2017-09-03T15:43:13.923Z,5.20
2017-09-03T15:45:41.501Z,4.75
2017-09-03T15:48:09.084Z,2.95
2017-09-03T15:50:37.379Z,2.80
2017-09-03T15:53:04.927Z,3.87
2017-09-03T15:55:32.463Z,2.85
2017-09-03T15:58:00.109Z,2.42
2017-09-03T16:00:27.628Z,2.70
2017-09-03T16:02:55.253Z,2.20
2017-09-03T16:05:22.840Z,2.42
2017-09-03T16:07:50.378Z,2.87
2017-09-03T16:10:17.945Z,1.95
2017-09-03T16:12:45.578Z,1.80
2017-09-03T16:15:13.146Z,1.90
2017-09-03T16:17:40.734Z,2.10
2017-09-03T16:20:08.362Z,2.17
2017-09-03T16:22:36.945Z,2.10
2017-09-03T16:25:04.604Z,2.28
2017-09-03T16:27:32.218Z,2.83
2017-09-03T16:29:59.768Z,2.30
2017-09-03T16:32:27.325Z,1.98
2017-09-03T16:34:54.922Z,2.10
2017-09-03T16:37:22.464Z,2.80
2017-09-03T16:39:50.035Z,2.28
2017-09-03T16:42:17.630Z,2.58
2017-09-03T16:44:45.236Z,2.20
2017-09-03T16:47:12.842Z,2.00
2017-09-03T16:49:40.412Z,2.30
2017-09-03T16:52:07.990Z,2.15
2017-09-03T16:54:35.571Z,2.90
2017-09-03T16:57:03.117Z,2.50
2017-09-03T16:59:30.673Z,2.33
2017-09-03T17:01:59.017Z,2.30
2017-09-03T17:04:26.596Z,2.10
2017-09-03T17:06:54.199Z,2.30
2017-09-03T17:09:21.799Z,7.00
2017-09-03T17:11:49.356Z,4.80
2017-09-03T17:14:16.924Z,2.30
2017-09-03T17:16:45.342Z,2.25
2017-09-03T17:19:13.023Z,3.60
2017-09-03T17:21:40.614Z,2.55
2017-09-03T17:24:08.259Z,2.40
2017-09-03T17:26:35.791Z,2.70
2017-09-03T17:29:03.420Z,1.92
2017-09-03T17:31:31.574Z,1.90
2017-09-03T17:33:59.695Z,2.03
2017-09-03T17:36:38.119Z,2.58
2017-09-03T17:39:05.724Z,3.00
2017-09-03T17:41:33.327Z,2.70
2017-09-03T17:44:10.952Z,2.60
2017-09-03T17:46:38.595Z,2.25
2017-09-03T17:49:06.180Z,2.03
2017-09-03T17:51:34.305Z,1.80
2017-09-03T17:54:02.192Z,2.17
2017-09-03T17:56:29.727Z,3.80
2017-09-03T17:58:57.411Z,2.58
2017-09-03T18:01:25.824Z,2.62
2017-09-03T18:03:54.144Z,2.00
2017-09-03T18:06:22.486Z,2.40
2017-09-03T18:08:50.096Z,2.67
2017-09-03T18:11:18.635Z,3.05
2017-09-03T18:13:47.655Z,2.03
2017-09-03T18:16:15.988Z,3.80
2017-09-03T18:18:43.600Z,2.60
2017-09-03T18:26:56.112Z,2.00
2017-09-03T18:29:29.200Z,2.10
2017-09-03T18:31:57.588Z,2.45
2017-09-03T18:34:25.184Z,2.50
2017-09-03T18:40:02.836Z,2.60
2017-09-03T18:42:48.316Z,2.30
2017-09-03T18:45:17.837Z,2.30
2017-09-03T18:47:46.936Z,3.40
2017-09-03T18:50:15.750Z,3.80
2017-09-03T18:52:45.908Z,4.12
2017-09-03T18:55:13.556Z,3.87
2017-09-03T18:57:57.126Z,3.92
2017-09-03T19:00:25.268Z,4.07
2017-09-03T19:02:55.142Z,3.35
2017-09-03T19:05:22.756Z,3.40
2017-09-03T19:07:50.470Z,3.78
2017-09-03T19:10:18.102Z,3.08
2017-09-03T19:12:45.631Z,3.15
2017-09-03T19:15:13.352Z,3.45
2017-09-03T19:17:40.996Z,3.53
2017-09-03T19:20:08.611Z,2.65
2017-09-03T19:22:36.302Z,3.22
2017-09-03T19:25:03.892Z,3.35
2017-09-03T19:27:32.051Z,3.00
2017-09-03T19:29:59.647Z,2.50
2017-09-03T19:32:28.187Z,2.75
2017-09-03T19:34:56.772Z,3.67
2017-09-03T19:37:26.995Z,2.67
2017-09-03T19:39:54.611Z,2.70
2017-09-03T19:42:22.995Z,3.35
2017-09-03T19:44:50.563Z,3.08
2017-09-03T19:47:19.184Z,2.85
2017-09-03T19:49:46.853Z,5.00
2017-09-03T19:52:14.459Z,2.97
2017-09-03T19:54:42.147Z,3.03
2017-09-03T19:57:09.716Z,2.85
2017-09-03T19:59:37.631Z,2.85
2017-09-03T20:02:05.213Z,3.03
2017-09-03T20:04:32.938Z,2.80
2017-09-03T20:07:00.578Z,3.58
2017-09-03T20:09:28.154Z,3.40
2017-09-03T20:11:55.709Z,2.92
2017-09-03T20:14:23.315Z,3.30
2017-09-03T20:16:50.912Z,2.90
2017-09-03T20:19:18.611Z,2.62
2017-09-03T20:21:46.231Z,2.72
2017-09-03T20:24:13.814Z,3.35
2017-09-03T20:26:45.534Z,3.20
2017-09-03T20:29:14.014Z,3.10
2017-09-03T20:31:42.399Z,3.30
2017-09-03T20:34:09.969Z,2.92
2017-09-03T20:36:38.179Z,3.10
2017-09-03T20:39:05.800Z,2.95
2017-09-03T20:41:33.920Z,3.08
2017-09-03T20:44:01.567Z,3.03
2017-09-03T20:46:29.111Z,3.00
2017-09-03T20:48:57.368Z,3.10
2017-09-03T20:51:25.154Z,2.87
2017-09-03T20:53:52.864Z,4.18
2017-09-03T20:56:20.627Z,4.68
2017-09-03T20:58:48.384Z,4.68
2017-09-03T21:01:16.120Z,4.60
2017-09-03T21:03:43.694Z,4.50
2017-09-03T21:06:11.279Z,4.65
2017-09-03T21:08:38.834Z,4.57
2017-09-03T21:11:06.332Z,4.40
2017-09-03T21:13:33.876Z,4.37
2017-09-03T21:16:01.465Z,4.68
2017-09-03T21:18:29.038Z,4.95
2017-09-03T21:20:56.607Z,5.07
2017-09-03T21:23:24.188Z,4.40
2017-09-03T21:25:51.751Z,4.60
2017-09-03T21:28:19.267Z,4.30
2017-09-03T21:30:46.818Z,3.90
2017-09-03T21:33:14.391Z,3.85
2017-09-03T21:35:41.949Z,3.95
2017-09-03T21:38:09.526Z,3.90
2017-09-03T21:40:37.092Z,4.20
2017-09-03T21:43:04.659Z,3.83
2017-09-03T21:45:32.195Z,3.47
2017-09-03T21:47:59.786Z,3.78
2017-09-03T21:50:27.349Z,3.70
2017-09-03T21:52:54.919Z,3.53
2017-09-03T21:55:22.527Z,3.87
2017-09-03T21:57:50.070Z,3.45
2017-09-03T22:00:17.631Z,4.35
2017-09-03T22:02:45.146Z,3.95
2017-09-03T22:05:12.662Z,3.55
2017-09-03T22:07:40.189Z,3.62
2017-09-03T22:10:07.696Z,3.85
2017-09-03T22:12:35.261Z,3.87
2017-09-03T22:15:02.752Z,4.53
2017-09-03T22:17:30.369Z,5.30
2017-09-03T22:19:57.895Z,4.18
2017-09-03T22:22:25.480Z,4.40
2017-09-03T22:24:53.122Z,5.00
2017-09-03T22:27:20.737Z,4.45
2017-09-03T22:29:48.315Z,4.95
2017-09-03T22:32:15.973Z,4.30
2017-09-03T22:34:43.580Z,4.70
2017-09-03T22:37:11.159Z,4.30
2017-09-03T22:39:38.823Z,4.50
2017-09-03T22:42:06.382Z,4.30
2017-09-03T22:44:33.993Z,4.35
2017-09-03T22:47:01.559Z,4.85
2017-09-03T22:49:29.102Z,4.87
2017-09-03T22:51:56.614Z,5.00
2017-09-03T22:54:24.175Z,4.30
2017-09-03T22:56:51.737Z,4.35
2017-09-03T22:59:19.292Z,4.37
2017-09-03T23:01:46.787Z,4.30
2017-09-03T23:04:14.313Z,4.50
2017-09-03T23:06:41.877Z,4.85
2017-09-03T23:09:09.441Z,4.78
2017-09-03T23:11:36.938Z,4.50
2017-09-03T23:14:04.539Z,4.70
2017-09-03T23:16:32.121Z,4.65
2017-09-03T23:18:59.667Z,4.70
2017-09-03T23:21:27.235Z,4.95
2017-09-03T23:23:54.801Z,4.32
2017-09-03T23:26:22.332Z,4.75
2017-09-03T23:28:49.898Z,4.70
2017-09-03T23:31:17.399Z,4.72
2017-09-03T23:33:44.958Z,4.45
2017-09-03T23:36:12.451Z,4.70
2017-09-03T23:38:39.999Z,4.85
2017-09-03T23:41:07.518Z,4.90
2017-09-03T23:43:35.014Z,4.43
2017-09-03T23:46:02.567Z,4.80
2017-09-03T23:48:30.124Z,4.65
2017-09-03T23:50:57.698Z,4.03
2017-09-03T23:53:25.305Z,4.05
2017-09-03T23:55:52.807Z,4.30
2017-09-03T23:58:20.358Z,4.62
